createdAt,value
2022-10-12T00:02:46.984Z,-11291.88
2022-10-12T00:06:02.919Z,-11293.28
2022-10-12T00:09:10.807Z,-11298.06
2022-10-12T00:12:16.982Z,-11298.50
2022-10-12T00:15:23.474Z,-11294.25
2022-10-12T00:18:29.408Z,-11294.69
2022-10-12T00:21:35.527Z,-11292.16
2022-10-12T00:24:43.223Z,-11291.03
2022-10-12T00:27:49.569Z,-11285.41
2022-10-12T00:30:55.888Z,-11291.03
2022-10-12T00:34:03.586Z,-11287.91
2022-10-12T00:37:10.083Z,-11287.34
2022-10-12T00:40:17.944Z,-11289.06
2022-10-12T00:43:30.977Z,-11287.63
2022-10-12T00:46:40.778Z,-11294.41
2022-10-12T00:49:49.670Z,-11294.13
2022-10-12T00:53:01.058Z,-11294.69
2022-10-12T00:56:12.732Z,-11290.47
2022-10-12T00:59:24.214Z,-11294.69
2022-10-12T01:02:33.244Z,-11292.44
2022-10-12T01:05:41.758Z,-11292.16
2022-10-12T01:08:48.399Z,-11289.34
2022-10-12T01:11:57.838Z,-11294.13
2022-10-12T01:15:04.710Z,-11292.00
2022-10-12T01:18:16.833Z,-11292.00
2022-10-12T01:21:24.279Z,-11291.59
2022-10-12T01:24:46.007Z,-11285.13
2022-10-12T01:27:56.366Z,-11287.06
2022-10-12T01:31:09.695Z,-11287.34
2022-10-12T01:34:21.525Z,-11290.19
2022-10-12T01:37:36.556Z,-11294.69
2022-10-12T01:40:50.790Z,-11289.91
2022-10-12T01:43:56.742Z,-11286.66
2022-10-12T01:47:04.379Z,-11292.44
2022-10-12T01:50:13.885Z,-11291.44
2022-10-12T01:53:28.651Z,-11289.91
2022-10-12T01:56:45.597Z,-11289.63
2022-10-12T02:00:02.621Z,-11291.31
2022-10-12T02:03:16.778Z,-11289.91
2022-10-12T02:06:30.075Z,-11285.41
2022-10-12T02:09:38.584Z,-11276.94
2022-10-12T02:12:47.375Z,-11274.69
2022-10-12T02:15:55.388Z,-11280.88
2022-10-12T02:19:08.328Z,-11277.22
2022-10-12T02:22:18.031Z,-11270.75
2022-10-12T02:25:27.763Z,-11283.13
2022-10-12T02:28:38.415Z,-11286.22
2022-10-12T02:31:53.888Z,-11289.06
2022-10-12T02:35:06.934Z,-11294.13
2022-10-12T02:38:19.679Z,-11294.69
2022-10-12T02:41:30.726Z,-11290.19
2022-10-12T02:44:40.217Z,-11281.16
2022-10-12T02:47:48.906Z,-11283.41
2022-10-12T02:50:59.043Z,-11281.88
2022-10-12T02:54:05.307Z,-11284.28
2022-10-12T02:57:11.363Z,-11286.38
2022-10-12T03:00:19.096Z,-11281.72
2022-10-12T03:03:25.288Z,-11286.66
2022-10-12T03:06:32.988Z,-11283.56
2022-10-12T03:09:42.055Z,-11287.34
2022-10-12T03:12:50.369Z,-11290.03
2022-10-12T03:16:02.813Z,-11284.84
2022-10-12T03:19:09.229Z,-11287.78
2022-10-12T03:22:16.883Z,-11289.06
2022-10-12T03:25:23.093Z,-11290.19
2022-10-12T03:28:29.609Z,-11288.91
2022-10-12T03:31:35.896Z,-11294.41
2022-10-12T03:34:42.305Z,-11288.06
2022-10-12T03:37:50.306Z,-11292.16
2022-10-12T03:40:57.394Z,-11294.97
2022-10-12T03:44:03.794Z,-11293.41
2022-10-12T03:47:10.014Z,-11293.28
2022-10-12T03:50:16.331Z,-11293.41
2022-10-12T03:53:23.889Z,-11293.00
2022-10-12T03:56:29.916Z,-11289.75
2022-10-12T03:59:36.189Z,-11291.31
2022-10-12T04:02:42.563Z,-11293.00
2022-10-12T04:05:54.759Z,-11291.31
2022-10-12T04:09:02.563Z,-11287.63
2022-10-12T04:12:08.811Z,-11291.88
2022-10-12T04:15:15.535Z,-11290.59
2022-10-12T04:18:21.955Z,-11288.78
2022-10-12T04:21:32.130Z,-11280.88
2022-10-12T04:24:39.727Z,-11284.56
2022-10-12T04:27:45.704Z,-11291.03
2022-10-12T04:30:51.788Z,-11285.97
2022-10-12T04:33:58.055Z,-11286.94
2022-10-12T04:37:05.019Z,-11288.19
2022-10-12T04:40:13.379Z,-11290.19
2022-10-12T04:43:19.483Z,-11285.41
2022-10-12T04:46:25.659Z,-11290.59
2022-10-12T04:49:32.236Z,-11290.88
2022-10-12T04:52:38.270Z,-11287.34
2022-10-12T04:55:45.987Z,-11282.00
2022-10-12T04:58:52.526Z,-11286.50
2022-10-12T05:01:59.033Z,-11284.56
2022-10-12T05:05:05.303Z,-11288.34
2022-10-12T05:08:11.181Z,-11294.53
2022-10-12T05:11:19.026Z,-11290.59
2022-10-12T05:14:25.243Z,-11293.00
2022-10-12T05:17:31.640Z,-11297.34
2022-10-12T05:20:37.939Z,-11297.63
2022-10-12T05:23:44.404Z,-11297.78
2022-10-12T05:26:52.037Z,-11295.53
2022-10-12T05:29:58.303Z,-11295.66
2022-10-12T05:33:04.850Z,-11297.91
2022-10-12T05:36:11.250Z,-11295.25
2022-10-12T05:39:17.091Z,-11291.31
2022-10-12T05:42:24.490Z,-11296.38
2022-10-12T05:45:30.664Z,-11298.06
2022-10-12T05:48:37.093Z,-11301.59
2022-10-12T05:51:43.509Z,-11297.91
2022-10-12T05:54:50.165Z,-11297.22
2022-10-12T05:57:58.067Z,-11293.97
2022-10-12T06:01:08.402Z,-11289.34
2022-10-12T06:04:14.568Z,-11291.88
2022-10-12T06:07:20.771Z,-11290.47
2022-10-12T06:10:29.976Z,-11286.38
2022-10-12T06:13:37.635Z,-11293.28
2022-10-12T06:16:43.668Z,-11290.59
2022-10-12T06:19:50.026Z,-11297.78
2022-10-12T06:22:56.243Z,-11303.41
2022-10-12T06:26:02.656Z,-11295.25
2022-10-12T06:29:10.290Z,-11303.84
2022-10-12T06:32:16.603Z,-11291.44
2022-10-12T06:35:23.234Z,-11297.91
2022-10-12T06:38:29.738Z,-11305.66
2022-10-12T06:41:36.389Z,-11298.63
2022-10-12T06:44:44.057Z,-11300.75
2022-10-12T06:47:50.217Z,-11310.16
2022-10-12T06:50:56.499Z,-11310.72
2022-10-12T06:54:02.479Z,-11313.00
2022-10-12T06:57:08.873Z,-11311.28
2022-10-12T07:00:17.163Z,-11318.34
2022-10-12T07:03:23.379Z,-11314.13
2022-10-12T07:06:29.720Z,-11319.19
2022-10-12T07:09:36.523Z,-11314.13
2022-10-12T07:12:42.745Z,-11311.72
2022-10-12T07:15:52.146Z,-11315.81
2022-10-12T07:18:58.136Z,-11314.69
2022-10-12T07:22:04.196Z,-11312.72
2022-10-12T07:25:10.820Z,-11319.47
2022-10-12T07:28:17.431Z,-11321.16
2022-10-12T07:31:25.970Z,-11330.31
2022-10-12T07:34:32.467Z,-11320.44
2022-10-12T07:37:39.091Z,-11333.56
2022-10-12T07:40:45.836Z,-11329.03
2022-10-12T07:43:55.962Z,-11350.16
2022-10-12T07:47:03.446Z,-11347.91
2022-10-12T07:50:10.387Z,-11356.22
2022-10-12T07:53:16.654Z,-11360.31
2022-10-12T07:56:22.864Z,-11339.75
2022-10-12T07:59:29.240Z,-11339.59
2022-10-12T08:02:37.513Z,-11349.31
2022-10-12T08:05:43.820Z,-11365.09
2022-10-12T08:08:50.382Z,-11365.53
2022-10-12T08:11:57.357Z,-11347.50
2022-10-12T08:15:04.012Z,-11356.38
2022-10-12T08:18:11.676Z,-11356.94
2022-10-12T08:21:18.960Z,-11362.28
2022-10-12T08:24:25.031Z,-11377.22
2022-10-12T08:27:32.385Z,-11357.78
2022-10-12T08:30:40.465Z,-11352.13
2022-10-12T08:33:48.140Z,-11356.94
2022-10-12T08:36:54.143Z,-11372.44
2022-10-12T08:40:03.274Z,-11385.09
2022-10-12T08:43:23.052Z,-11383.69
2022-10-12T08:46:30.480Z,-11380.19
2022-10-12T08:49:40.427Z,-11389.34
2022-10-12T08:52:53.963Z,-11380.19
2022-10-12T08:56:01.527Z,-11390.31
2022-10-12T08:59:13.112Z,-11388.19
2022-10-12T09:02:36.224Z,-11390.47
2022-10-12T09:05:51.762Z,-11382.84
2022-10-12T09:09:06.484Z,-11409.50
2022-10-12T09:12:29.700Z,-11377.34
2022-10-12T09:15:40.449Z,-11388.75
2022-10-12T09:18:52.503Z,-11401.72
2022-10-12T09:22:00.128Z,-11387.91
2022-10-12T09:25:13.172Z,-11404.84
2022-10-12T09:28:27.073Z,-11387.91
2022-10-12T09:31:52.524Z,-11398.34
2022-10-12T09:35:00.579Z,-11410.75
2022-10-12T09:38:09.377Z,-11423.16
2022-10-12T09:41:21.963Z,-11422.88
2022-10-12T09:44:32.819Z,-11409.91
2022-10-12T09:47:39.308Z,-11393.69
2022-10-12T09:50:49.639Z,-11420.06
2022-10-12T09:54:03.358Z,-11432.19
2022-10-12T09:57:10.105Z,-11441.75
2022-10-12T10:00:26.048Z,-11433.31
2022-10-12T10:03:32.604Z,-11455.03
2022-10-12T10:06:40.232Z,-11480.69
2022-10-12T10:09:48.372Z,-11442.91
2022-10-12T10:12:55.827Z,-11423.72
2022-10-12T10:16:07.831Z,-11445.44
2022-10-12T10:19:19.559Z,-11462.63
2022-10-12T10:22:26.056Z,-11433.03
2022-10-12T10:25:35.024Z,-11441.34
2022-10-12T10:28:42.986Z,-11451.91
2022-10-12T10:31:51.905Z,-11446.13
2022-10-12T10:35:18.683Z,-11434.72
2022-10-12T10:38:25.516Z,-11421.47
2022-10-12T10:41:37.099Z,-11435.84
2022-10-12T10:44:51.159Z,-11436.13
2022-10-12T10:48:01.545Z,-11444.44
2022-10-12T10:51:08.776Z,-11424.00
2022-10-12T10:54:16.444Z,-11444.88
2022-10-12T10:57:26.330Z,-11435.56
2022-10-12T11:00:40.055Z,-11452.19
2022-10-12T11:03:54.734Z,-11424.84
2022-10-12T11:07:06.746Z,-11433.72
2022-10-12T11:10:26.272Z,-11433.03
2022-10-12T11:13:37.267Z,-11433.72
2022-10-12T11:16:47.448Z,-11429.94
2022-10-12T11:20:03.124Z,-11419.63
2022-10-12T11:23:20.658Z,-11439.50
2022-10-12T11:26:30.721Z,-11432.47
2022-10-12T11:29:38.989Z,-11431.75
2022-10-12T11:32:48.253Z,-11416.09
2022-10-12T11:35:58.369Z,-11420.19
2022-10-12T11:39:07.795Z,-11424.16
2022-10-12T11:42:22.497Z,-11431.19
2022-10-12T11:45:33.092Z,-11427.38
2022-10-12T11:48:47.795Z,-11436.97
2022-10-12T11:51:58.468Z,-11414.84
2022-10-12T11:55:25.203Z,-11429.09
2022-10-12T11:58:55.830Z,-11428.94
2022-10-12T12:02:14.493Z,-11417.66
2022-10-12T12:05:21.096Z,-11426.81
2022-10-12T12:08:59.921Z,-11437.53
2022-10-12T12:12:18.862Z,-11419.50
2022-10-12T12:15:25.127Z,-11434.44
2022-10-12T12:18:34.177Z,-11437.25
2022-10-12T12:22:13.207Z,-11421.75
2022-10-12T12:25:27.136Z,-11436.56
2022-10-12T12:28:34.660Z,-11427.25
2022-10-12T12:31:41.161Z,-11434.56
2022-10-12T12:35:00.085Z,-11439.22
2022-10-12T12:38:25.491Z,-11426.81
2022-10-12T12:41:55.069Z,-11418.38
2022-10-12T12:45:36.962Z,-11416.66
2022-10-12T12:49:03.272Z,-11422.88
2022-10-12T12:52:18.045Z,-11414.84
2022-10-12T12:55:50.349Z,-11433.03
2022-10-12T12:59:22.139Z,-11431.63
2022-10-12T13:03:01.558Z,-11435.56
2022-10-12T13:06:49.215Z,-11421.88
2022-10-12T13:10:28.193Z,-11449.81
2022-10-12T13:13:51.296Z,-11437.53
2022-10-12T13:17:31.710Z,-11444.03
2022-10-12T13:20:38.966Z,-11428.81
2022-10-12T13:23:48.108Z,-11441.63
2022-10-12T13:27:01.568Z,-11441.19
2022-10-12T13:30:15.092Z,-11438.38
2022-10-12T13:33:32.103Z,-11425.69
2022-10-12T13:36:57.591Z,-11427.09
2022-10-12T13:40:04.122Z,-11433.44
2022-10-12T13:43:30.613Z,-11433.31
2022-10-12T13:46:41.971Z,-11428.25
2022-10-12T13:49:48.321Z,-11416.66
2022-10-12T13:52:55.564Z,-11416.38
2022-10-12T13:56:05.358Z,-11424.72
2022-10-12T13:59:19.207Z,-11435.84
2022-10-12T14:02:27.691Z,-11411.75
2022-10-12T14:05:35.294Z,-11413.28
2022-10-12T14:08:41.803Z,-11415.53
2022-10-12T14:11:49.204Z,-11407.09
2022-10-12T14:14:57.402Z,-11414.28
2022-10-12T14:18:04.436Z,-11409.78
2022-10-12T14:21:23.719Z,-11406.81
2022-10-12T14:24:30.395Z,-11406.38
2022-10-12T14:27:39.331Z,-11406.09
2022-10-12T14:30:54.244Z,-11412.03
2022-10-12T14:34:33.658Z,-11406.25
2022-10-12T14:37:40.526Z,-11399.34
2022-10-12T14:40:47.181Z,-11399.47
2022-10-12T14:44:10.331Z,-11395.53
2022-10-12T14:47:23.106Z,-11401.44
2022-10-12T14:50:31.601Z,-11396.38
2022-10-12T14:53:37.935Z,-11396.53
2022-10-12T14:56:44.575Z,-11392.44
2022-10-12T14:59:51.208Z,-11392.44
2022-10-12T15:02:59.032Z,-11394.69
2022-10-12T15:06:04.973Z,-11389.34
2022-10-12T15:09:11.365Z,-11386.94
2022-10-12T15:12:19.359Z,-11379.47
2022-10-12T15:15:31.991Z,-11383.84
2022-10-12T15:18:39.615Z,-11381.16
2022-10-12T15:21:45.822Z,-11380.19
2022-10-12T15:24:53.250Z,-11378.75
2022-10-12T15:27:59.391Z,-11375.53
2022-10-12T15:31:17.618Z,-11370.16
2022-10-12T15:34:25.897Z,-11366.94
2022-10-12T15:37:32.215Z,-11372.00
2022-10-12T15:40:40.438Z,-11368.75
2022-10-12T15:43:47.047Z,-11365.81
2022-10-12T15:46:54.423Z,-11364.81
2022-10-12T15:50:02.125Z,-11364.25
2022-10-12T15:53:10.334Z,-11357.34
2022-10-12T15:56:17.499Z,-11362.84
2022-10-12T15:59:24.143Z,-11359.47
2022-10-12T16:02:30.230Z,-11362.84
2022-10-12T16:05:38.679Z,-11365.25
2022-10-12T16:08:45.254Z,-11354.09
2022-10-12T16:11:51.887Z,-11355.94
2022-10-12T16:14:58.429Z,-11356.94
2022-10-12T16:18:06.387Z,-11356.38
2022-10-12T16:21:14.450Z,-11352.69
2022-10-12T16:24:21.130Z,-11349.03
2022-10-12T16:27:27.666Z,-11354.09
2022-10-12T16:30:34.418Z,-11349.88
2022-10-12T16:33:41.531Z,-11349.88
2022-10-12T16:36:49.123Z,-11347.34
2022-10-12T16:39:55.383Z,-11350.16
2022-10-12T16:43:01.714Z,-11349.19
2022-10-12T16:46:08.723Z,-11348.91
2022-10-12T16:49:14.663Z,-11344.53
2022-10-12T16:52:24.617Z,-11347.34
2022-10-12T16:55:30.894Z,-11343.69
2022-10-12T16:58:37.354Z,-11341.72
2022-10-12T17:01:43.373Z,-11340.88
2022-10-12T17:04:49.831Z,-11344.97
2022-10-12T17:07:57.669Z,-11341.28
2022-10-12T17:11:06.990Z,-11337.50
2022-10-12T17:14:16.735Z,-11331.16
2022-10-12T17:17:22.776Z,-11328.47
2022-10-12T17:20:29.280Z,-11331.44
2022-10-12T17:23:37.238Z,-11325.94
2022-10-12T17:26:43.667Z,-11323.41
2022-10-12T17:29:49.882Z,-11324.66
2022-10-12T17:32:56.225Z,-11327.22
2022-10-12T17:36:07.321Z,-11323.13
2022-10-12T17:39:15.722Z,-11325.78
2022-10-12T17:42:23.171Z,-11319.47
2022-10-12T17:45:29.799Z,-11313.13
2022-10-12T17:48:35.891Z,-11315.53
2022-10-12T17:51:42.910Z,-11311.84
2022-10-12T17:54:50.739Z,-11309.88
2022-10-12T17:57:56.814Z,-11300.47
2022-10-12T18:01:06.301Z,-11303.13
2022-10-12T18:04:13.963Z,-11307.78
2022-10-12T18:07:20.425Z,-11307.63
2022-10-12T18:10:28.693Z,-11307.63
2022-10-12T18:13:36.219Z,-11305.81
2022-10-12T18:16:42.538Z,-11302.56
2022-10-12T18:19:48.815Z,-11304.25
2022-10-12T18:22:55.406Z,-11305.94
2022-10-12T18:26:05.463Z,-11307.06
2022-10-12T18:29:11.875Z,-11303.97
2022-10-12T18:32:18.393Z,-11303.28
2022-10-12T18:35:25.035Z,-11310.16
2022-10-12T18:38:31.319Z,-11304.97
2022-10-12T18:41:39.223Z,-11298.91
2022-10-12T18:44:45.649Z,-11298.34
2022-10-12T18:47:52.982Z,-11296.09
2022-10-12T18:51:05.205Z,-11300.03
2022-10-12T18:54:14.195Z,-11300.59
2022-10-12T18:57:21.749Z,-11302.56
2022-10-12T19:00:27.971Z,-11300.31
2022-10-12T19:03:34.070Z,-11300.47
2022-10-12T19:06:42.722Z,-11297.22
2022-10-12T19:09:48.704Z,-11295.81
2022-10-12T19:12:56.335Z,-11294.13
2022-10-12T19:16:08.549Z,-11297.22
2022-10-12T19:19:20.751Z,-11294.25
2022-10-12T19:22:27.385Z,-11296.78
2022-10-12T19:25:33.467Z,-11301.59
2022-10-12T19:28:41.375Z,-11297.06
2022-10-12T19:31:50.149Z,-11298.91
2022-10-12T19:34:56.238Z,-11302.56
2022-10-12T19:38:02.814Z,-11300.19
2022-10-12T19:41:10.126Z,-11301.03
2022-10-12T19:44:19.361Z,-11301.16
2022-10-12T19:47:25.259Z,-11295.81
2022-10-12T19:50:31.955Z,-11298.19
2022-10-12T19:53:38.389Z,-11291.16
2022-10-12T19:56:44.774Z,-11288.19
2022-10-12T19:59:52.493Z,-11292.16
2022-10-12T20:02:58.418Z,-11294.69
2022-10-12T20:06:09.130Z,-11286.94
2022-10-12T20:09:15.477Z,-11289.47
2022-10-12T20:12:21.865Z,-11293.00
2022-10-12T20:15:31.263Z,-11289.06
2022-10-12T20:18:37.911Z,-11291.59
2022-10-12T20:21:44.159Z,-11290.75
2022-10-12T20:24:50.381Z,-11289.06
2022-10-12T20:27:57.127Z,-11282.00
2022-10-12T20:31:06.507Z,-11280.59
2022-10-12T20:34:13.032Z,-11276.09
2022-10-12T20:37:21.566Z,-11281.03
2022-10-12T20:40:28.035Z,-11286.78
2022-10-12T20:43:34.203Z,-11280.31
2022-10-12T20:46:44.567Z,-11276.09
2022-10-12T20:49:50.422Z,-11271.88
2022-10-12T20:52:56.742Z,-11277.09
2022-10-12T20:56:06.969Z,-11270.91
2022-10-12T20:59:13.202Z,-11277.22
2022-10-12T21:02:21.604Z,-11275.97
2022-10-12T21:05:28.166Z,-11273.44
2022-10-12T21:08:34.341Z,-11276.66
2022-10-12T21:11:40.855Z,-11268.38
2022-10-12T21:14:46.944Z,-11271.19
2022-10-12T21:17:54.535Z,-11265.13
2022-10-12T21:21:02.482Z,-11266.53
2022-10-12T21:24:10.557Z,-11262.31
2022-10-12T21:27:16.627Z,-11255.84
2022-10-12T21:30:23.153Z,-11258.94
2022-10-12T21:33:30.864Z,-11263.88
2022-10-12T21:36:37.808Z,-11254.16
2022-10-12T21:39:43.986Z,-11249.94
2022-10-12T21:42:50.308Z,-11254.44
2022-10-12T21:45:56.732Z,-11258.38
2022-10-12T21:49:06.673Z,-11257.81
2022-10-12T21:52:12.669Z,-11245.56
2022-10-12T21:55:19.197Z,-11242.19
2022-10-12T21:58:25.553Z,-11247.41
2022-10-12T22:01:34.774Z,-11254.56
2022-10-12T22:04:42.462Z,-11250.06
2022-10-12T22:07:48.703Z,-11252.47
2022-10-12T22:10:55.222Z,-11249.66
2022-10-12T22:14:03.338Z,-11253.44
2022-10-12T22:17:09.601Z,-11247.69
2022-10-12T22:20:17.636Z,-11246.28
2022-10-12T22:23:23.814Z,-11235.31
2022-10-12T22:26:30.331Z,-11238.66
2022-10-12T22:29:36.771Z,-11242.19
2022-10-12T22:32:42.792Z,-11238.53
2022-10-12T22:35:58.106Z,-11242.19
2022-10-12T22:39:06.059Z,-11241.47
2022-10-12T22:42:12.483Z,-11241.75
2022-10-12T22:45:18.799Z,-11233.75
2022-10-12T22:48:25.824Z,-11238.81
2022-10-12T22:51:34.707Z,-11242.31
2022-10-12T22:54:40.707Z,-11236.56
2022-10-12T22:57:47.073Z,-11241.19
2022-10-12T23:00:53.312Z,-11236.00
2022-10-12T23:03:59.138Z,-11226.84
2022-10-12T23:07:06.862Z,-11215.59
2022-10-12T23:10:12.970Z,-11226.84
2022-10-12T23:13:19.214Z,-11214.34
2022-10-12T23:16:27.906Z,-11211.25
2022-10-12T23:19:33.915Z,-11218.41
2022-10-12T23:22:41.608Z,-11221.50
2022-10-12T23:25:47.844Z,-11206.31
2022-10-12T23:28:55.304Z,-11204.63
2022-10-12T23:32:01.761Z,-11195.63
2022-10-12T23:35:08.751Z,-11217.00
2022-10-12T23:38:16.620Z,-11209.28
2022-10-12T23:41:23.139Z,-11206.03
2022-10-12T23:44:29.576Z,-11204.91
2022-10-12T23:47:36.046Z,-11196.91
2022-10-12T23:50:43.118Z,-11206.88
2022-10-12T23:53:50.648Z,-11196.91
2022-10-12T23:56:56.624Z,-11198.59
